createdAt,value
2023-02-11T00:01:20.774Z,19.63
2023-02-11T00:03:47.773Z,16.98
2023-02-11T00:06:14.873Z,19.33
2023-02-11T00:08:42.003Z,18.60
2023-02-11T00:11:17.755Z,17.88
2023-02-11T00:13:46.630Z,19.48
2023-02-11T00:16:20.965Z,16.48
2023-02-11T00:18:48.680Z,17.77
2023-02-11T00:21:20.102Z,18.23
2023-02-11T00:23:48.376Z,17.23
2023-02-11T00:26:20.105Z,18.88
2023-02-11T00:28:49.359Z,18.92
2023-02-11T00:31:18.515Z,17.50
2023-02-11T00:33:46.892Z,16.20
2023-02-11T00:36:18.950Z,19.35
2023-02-11T00:38:49.885Z,21.25
2023-02-11T00:41:18.524Z,18.38
2023-02-11T00:43:46.323Z,20.17
2023-02-11T00:46:13.666Z,20.20
2023-02-11T00:48:41.169Z,19.02
2023-02-11T00:51:09.186Z,19.63
2023-02-11T00:53:37.171Z,18.02
2023-02-11T00:56:05.406Z,20.35
2023-02-11T00:58:33.450Z,21.65
2023-02-11T01:01:00.544Z,17.98
2023-02-11T01:03:27.981Z,18.90
2023-02-11T01:05:55.932Z,19.77
2023-02-11T01:08:23.205Z,17.83
2023-02-11T01:11:01.705Z,18.67
2023-02-11T01:13:31.924Z,17.98
2023-02-11T01:15:59.441Z,19.05
2023-02-11T01:18:27.162Z,20.25
2023-02-11T01:20:54.931Z,19.90
2023-02-11T01:23:24.021Z,19.40
2023-02-11T01:25:51.996Z,19.38
2023-02-11T01:28:23.115Z,19.15
2023-02-11T01:30:50.360Z,19.35
2023-02-11T01:33:17.686Z,18.92
2023-02-11T01:35:45.197Z,19.45
2023-02-11T01:38:22.764Z,19.60
2023-02-11T01:40:57.406Z,17.85
2023-02-11T01:43:27.693Z,18.17
2023-02-11T01:46:06.542Z,18.00
2023-02-11T01:48:41.977Z,18.95
2023-02-11T01:51:48.489Z,18.40
2023-02-11T01:54:42.366Z,20.02
2023-02-11T01:57:24.764Z,19.73
2023-02-11T02:00:15.482Z,19.02
2023-02-11T02:03:02.607Z,20.65
2023-02-11T02:05:51.599Z,18.48
2023-02-11T02:08:29.488Z,18.45
2023-02-11T02:11:00.826Z,20.30
2023-02-11T02:13:31.470Z,19.60
2023-02-11T02:16:10.767Z,20.13
2023-02-11T02:19:18.344Z,18.25
2023-02-11T02:22:46.079Z,17.60
2023-02-11T02:25:49.050Z,20.00
2023-02-11T02:29:03.737Z,19.92
2023-02-11T02:32:10.246Z,19.55
2023-02-11T02:34:56.862Z,17.88
2023-02-11T02:38:10.399Z,18.45
2023-02-11T02:40:47.984Z,17.45
2023-02-11T02:43:17.463Z,18.50
2023-02-11T02:45:44.438Z,18.85
2023-02-11T02:48:35.925Z,19.23
2023-02-11T02:51:21.541Z,18.42
2023-02-11T02:54:28.974Z,19.27
2023-02-11T02:57:26.680Z,18.55
2023-02-11T03:00:27.301Z,20.17
2023-02-11T03:03:32.559Z,19.52
2023-02-11T03:06:30.499Z,18.63
2023-02-11T03:09:11.378Z,19.58
2023-02-11T03:11:40.339Z,18.27
2023-02-11T03:14:15.302Z,18.55
2023-02-11T03:16:44.583Z,19.15
2023-02-11T03:19:30.488Z,19.20
2023-02-11T03:21:58.228Z,17.30
2023-02-11T03:24:39.857Z,19.38
2023-02-11T03:27:31.445Z,17.33
2023-02-11T03:30:16.731Z,17.90
2023-02-11T03:32:59.629Z,16.67
2023-02-11T03:35:43.756Z,19.27
2023-02-11T03:38:22.204Z,17.15
2023-02-11T03:40:52.025Z,18.25
2023-02-11T03:43:25.352Z,18.42
2023-02-11T03:45:55.710Z,18.10
2023-02-11T03:48:38.777Z,19.13
2023-02-11T03:51:10.905Z,18.35
2023-02-11T03:53:42.867Z,19.15
2023-02-11T03:56:18.151Z,19.63
2023-02-11T04:01:13.241Z,19.80
2023-02-11T04:03:40.760Z,20.58
2023-02-11T04:06:08.396Z,18.65
2023-02-11T04:08:35.579Z,19.23
2023-02-11T04:11:02.772Z,17.95
2023-02-11T04:13:30.101Z,20.38
2023-02-11T04:15:57.130Z,18.25
2023-02-11T04:18:24.134Z,20.13
2023-02-11T04:20:51.425Z,20.02
2023-02-11T04:23:18.346Z,19.73
2023-02-11T04:25:45.288Z,20.10
2023-02-11T04:28:12.662Z,19.67
2023-02-11T04:30:39.676Z,19.27
2023-02-11T04:33:06.662Z,20.85
2023-02-11T04:35:33.622Z,20.80
2023-02-11T04:38:00.586Z,19.65
2023-02-11T04:40:27.635Z,20.27
2023-02-11T04:42:54.700Z,20.48
2023-02-11T04:45:21.608Z,18.98
2023-02-11T04:47:48.494Z,18.50
2023-02-11T04:50:15.479Z,20.27
2023-02-11T04:52:42.372Z,17.85
2023-02-11T04:55:09.412Z,20.10
2023-02-11T04:57:36.400Z,20.77
2023-02-11T05:00:04.874Z,20.65
2023-02-11T05:02:35.397Z,18.92
2023-02-11T05:05:02.872Z,19.05
2023-02-11T05:07:29.920Z,20.58
2023-02-11T05:09:56.848Z,20.15
2023-02-11T05:12:23.867Z,21.17
2023-02-11T05:14:50.756Z,19.88
2023-02-11T05:17:17.748Z,18.70
2023-02-11T05:19:44.665Z,20.25
2023-02-11T05:22:11.662Z,21.05
2023-02-11T05:24:38.678Z,19.83
2023-02-11T05:27:05.581Z,20.67
2023-02-11T05:29:32.574Z,21.27
2023-02-11T05:32:00.234Z,20.75
2023-02-11T05:34:27.139Z,20.15
2023-02-11T05:36:54.112Z,21.00
2023-02-11T05:39:21.390Z,20.25
2023-02-11T05:41:48.375Z,20.35
2023-02-11T05:44:15.237Z,20.77
2023-02-11T05:46:42.166Z,19.75
2023-02-11T05:49:09.366Z,20.75
2023-02-11T05:51:36.293Z,20.35
2023-02-11T05:54:03.705Z,21.50
2023-02-11T05:56:30.635Z,20.83
2023-02-11T05:58:59.870Z,21.38
2023-02-11T06:01:27.474Z,22.27
2023-02-11T06:03:54.976Z,21.13
2023-02-11T06:06:22.168Z,22.15
2023-02-11T06:08:49.211Z,21.48
2023-02-11T06:11:17.706Z,22.58
2023-02-11T06:13:44.651Z,21.40
2023-02-11T06:16:11.584Z,21.90
2023-02-11T06:18:38.565Z,22.20
2023-02-11T06:21:10.495Z,21.63
2023-02-11T06:23:38.282Z,23.17
2023-02-11T06:26:18.653Z,22.75
2023-02-11T06:28:45.855Z,23.05
2023-02-11T06:31:13.955Z,21.85
2023-02-11T06:33:41.454Z,22.58
2023-02-11T06:36:26.462Z,22.80
2023-02-11T06:38:53.561Z,22.85
2023-02-11T06:41:20.696Z,22.85
2023-02-11T06:43:48.775Z,23.02
2023-02-11T06:46:16.177Z,21.75
2023-02-11T06:48:44.978Z,22.77
2023-02-11T06:51:14.689Z,21.15
2023-02-11T06:53:47.062Z,22.85
2023-02-11T06:56:20.975Z,21.40
2023-02-11T06:58:48.646Z,22.42
2023-02-11T07:01:16.831Z,22.17
2023-02-11T07:03:45.804Z,21.38
2023-02-11T07:06:17.148Z,22.30
2023-02-11T07:08:46.383Z,24.13
2023-02-11T07:11:32.976Z,22.23
2023-02-11T07:14:23.679Z,22.17
2023-02-11T07:16:50.666Z,22.48
2023-02-11T07:19:17.796Z,22.52
2023-02-11T07:21:44.752Z,22.80
2023-02-11T07:24:13.041Z,22.45
2023-02-11T07:26:40.318Z,22.67
2023-02-11T07:29:07.223Z,22.38
2023-02-11T07:31:34.375Z,23.27
2023-02-11T07:34:02.325Z,24.15
2023-02-11T07:36:34.436Z,22.38
2023-02-11T07:39:01.424Z,21.65
2023-02-11T07:41:28.357Z,22.75
2023-02-11T07:43:56.112Z,23.70
2023-02-11T07:46:28.063Z,24.05
2023-02-11T07:48:58.001Z,23.25
2023-02-11T07:51:31.501Z,22.38
2023-02-11T07:54:02.327Z,22.77
2023-02-11T07:59:53.562Z,22.40
2023-02-11T08:02:21.039Z,23.02
2023-02-11T08:08:44.814Z,22.83
2023-02-11T08:11:50.242Z,22.45
2023-02-11T08:23:18.552Z,22.15
2023-02-11T08:25:45.858Z,22.30
2023-02-11T08:28:13.045Z,22.77
2023-02-11T08:30:40.183Z,22.02
2023-02-11T08:33:07.084Z,21.45
2023-02-11T08:35:35.769Z,22.90
2023-02-11T08:38:02.703Z,21.35
2023-02-11T08:40:29.752Z,22.35
2023-02-11T08:42:56.724Z,22.88
2023-02-11T08:45:23.745Z,21.63
2023-02-11T08:47:51.086Z,20.33
2023-02-11T08:50:18.067Z,21.45
2023-02-11T08:52:45.107Z,21.35
2023-02-11T08:55:12.042Z,22.35
2023-02-11T08:57:38.952Z,22.27
2023-02-11T09:00:06.826Z,20.73
2023-02-11T09:02:33.844Z,20.75
2023-02-11T09:05:00.926Z,21.10
2023-02-11T09:07:28.860Z,19.92
2023-02-11T09:10:14.669Z,20.00
2023-02-11T09:12:52.603Z,21.48
2023-02-11T09:15:19.520Z,22.42
2023-02-11T09:17:46.479Z,21.63
2023-02-11T09:20:13.500Z,21.88
2023-02-11T09:22:40.413Z,21.58
2023-02-11T09:25:07.617Z,21.85
2023-02-11T09:27:34.547Z,21.23
2023-02-11T09:30:01.472Z,21.92
2023-02-11T09:32:28.407Z,20.38
2023-02-11T09:34:57.727Z,22.15
2023-02-11T09:37:24.866Z,22.15
2023-02-11T09:39:51.755Z,20.75
2023-02-11T09:42:43.112Z,23.02
2023-02-11T09:45:27.544Z,21.10
2023-02-11T09:48:20.448Z,21.17
2023-02-11T09:51:00.291Z,23.70
2023-02-11T09:53:31.982Z,21.85
2023-02-11T09:56:11.335Z,21.85
2023-02-11T09:58:44.748Z,22.60
2023-02-11T10:01:40.301Z,20.90
2023-02-11T10:05:04.855Z,20.65
2023-02-11T10:07:51.466Z,21.15
2023-02-11T10:10:54.046Z,21.50
2023-02-11T10:14:00.735Z,22.48
2023-02-11T10:19:46.073Z,20.83
2023-02-11T10:22:30.971Z,22.75
2023-02-11T10:25:17.045Z,21.90
2023-02-11T10:27:48.056Z,22.35
2023-02-11T10:30:28.993Z,22.50
2023-02-11T10:33:13.925Z,20.92
2023-02-11T10:35:43.767Z,20.63
2023-02-11T10:38:11.845Z,22.05
2023-02-11T10:40:39.487Z,22.13
2023-02-11T10:43:14.112Z,21.38
2023-02-11T10:45:53.985Z,20.48
2023-02-11T10:48:43.050Z,19.33
2023-02-11T10:51:14.556Z,20.88
2023-02-11T10:53:42.265Z,20.75
2023-02-11T10:56:22.785Z,21.35
2023-02-11T10:59:01.336Z,19.60
2023-02-11T11:01:54.508Z,20.10
2023-02-11T11:04:45.732Z,20.27
2023-02-11T11:07:25.048Z,20.55
2023-02-11T11:10:02.654Z,20.33
2023-02-11T11:12:42.244Z,21.85
2023-02-11T11:15:23.514Z,20.00
2023-02-11T11:18:21.859Z,20.65
2023-02-11T11:21:02.297Z,18.63
2023-02-11T11:23:34.641Z,19.02
2023-02-11T11:26:13.595Z,20.42
2023-02-11T11:29:02.531Z,21.27
2023-02-11T11:31:46.160Z,20.95
2023-02-11T11:34:29.606Z,19.52
2023-02-11T11:36:58.988Z,20.02
2023-02-11T11:39:35.572Z,20.58
2023-02-11T11:42:22.014Z,19.67
2023-02-11T11:45:00.728Z,19.80
2023-02-11T11:47:47.604Z,21.23
2023-02-11T11:50:39.995Z,18.63
2023-02-11T11:53:31.361Z,19.55
2023-02-11T11:56:12.133Z,20.67
2023-02-11T11:58:39.352Z,21.02
2023-02-11T12:01:29.436Z,18.52
2023-02-11T12:04:14.472Z,19.05
2023-02-11T12:07:25.957Z,19.80
2023-02-11T12:10:15.680Z,19.33
2023-02-11T12:13:12.988Z,17.88
2023-02-11T12:16:13.964Z,19.52
2023-02-11T12:19:05.347Z,19.63
2023-02-11T12:21:58.326Z,19.35
2023-02-11T12:24:34.719Z,19.35
2023-02-11T12:27:14.002Z,19.33
2023-02-11T12:30:39.989Z,19.80
2023-02-11T12:33:48.121Z,19.02
2023-02-11T12:37:38.038Z,18.80
2023-02-11T12:40:17.751Z,18.83
2023-02-11T12:43:10.065Z,19.13
2023-02-11T12:46:20.953Z,18.88
2023-02-11T12:49:30.660Z,19.73
2023-02-11T12:52:32.430Z,19.45
2023-02-11T12:55:22.379Z,19.05
2023-02-11T12:57:52.452Z,19.88
2023-02-11T13:00:24.896Z,20.40
2023-02-11T13:03:18.464Z,18.90
2023-02-11T13:05:57.994Z,18.50
2023-02-11T13:08:47.426Z,18.40
2023-02-11T13:11:24.097Z,18.52
2023-02-11T13:13:57.583Z,20.92
2023-02-11T13:16:49.745Z,20.65
2023-02-11T13:19:26.609Z,18.92
2023-02-11T13:22:20.852Z,18.17
2023-02-11T13:25:40.679Z,19.58
2023-02-11T13:28:27.672Z,18.52
2023-02-11T13:31:02.954Z,18.40
2023-02-11T13:33:36.154Z,18.58
2023-02-11T13:36:04.729Z,18.85
2023-02-11T13:38:32.754Z,17.95
2023-02-11T13:41:02.011Z,18.52
2023-02-11T13:43:32.941Z,19.00
2023-02-11T13:46:11.962Z,18.92
2023-02-11T13:48:53.035Z,17.25
2023-02-11T13:51:38.625Z,18.60
2023-02-11T13:54:08.081Z,19.65
2023-02-11T13:56:46.248Z,19.75
2023-02-11T13:59:25.599Z,18.30
2023-02-11T14:02:39.420Z,16.63
2023-02-11T14:05:24.766Z,18.20
2023-02-11T14:08:28.559Z,17.27
2023-02-11T14:11:25.251Z,15.52
2023-02-11T14:13:52.178Z,16.60
2023-02-11T14:16:36.918Z,17.60
2023-02-11T14:19:06.204Z,17.25
2023-02-11T14:21:47.570Z,16.15
2023-02-11T14:24:14.507Z,16.42
2023-02-11T14:26:54.160Z,17.60
2023-02-11T14:30:05.750Z,17.00
2023-02-11T14:33:11.727Z,18.08
2023-02-11T14:36:04.597Z,18.38
2023-02-11T14:38:52.336Z,18.15
2023-02-11T14:41:30.642Z,18.77
2023-02-11T14:44:11.666Z,17.55
2023-02-11T14:46:45.026Z,18.17
2023-02-11T14:49:39.532Z,18.50
2023-02-11T14:52:35.126Z,19.73
2023-02-11T14:55:32.004Z,18.73
2023-02-11T14:58:32.943Z,18.27
2023-02-11T15:01:22.859Z,18.08
2023-02-11T15:03:50.328Z,18.42
2023-02-11T15:06:36.652Z,18.63
2023-02-11T15:09:19.871Z,18.27
2023-02-11T15:11:51.867Z,17.85
2023-02-11T15:14:31.741Z,18.77
2023-02-11T15:17:03.712Z,19.60
2023-02-11T15:19:41.010Z,17.70
2023-02-11T15:22:22.266Z,16.52
2023-02-11T15:25:07.575Z,18.73
2023-02-11T15:27:42.739Z,17.83
2023-02-11T15:30:39.156Z,18.25
2023-02-11T15:33:06.860Z,18.45
2023-02-11T15:35:41.110Z,18.50
2023-02-11T15:38:12.982Z,17.10
2023-02-11T15:40:40.361Z,17.98
2023-02-11T15:43:11.556Z,16.80
2023-02-11T15:45:54.414Z,18.15
2023-02-11T15:48:37.674Z,17.50
2023-02-11T15:51:31.414Z,17.83
2023-02-11T15:54:05.885Z,17.30
2023-02-11T15:56:43.436Z,18.00
2023-02-11T15:59:42.830Z,16.92
2023-02-11T16:02:35.004Z,15.65
2023-02-11T16:05:10.064Z,16.15
2023-02-11T16:07:52.310Z,16.35
2023-02-11T16:10:34.414Z,17.75
2023-02-11T16:13:07.247Z,17.40
2023-02-11T16:15:34.253Z,17.33
2023-02-11T16:18:12.600Z,18.48
2023-02-11T16:20:39.939Z,17.42
2023-02-11T16:23:08.083Z,17.77
2023-02-11T16:25:36.207Z,17.27
2023-02-11T16:28:03.306Z,17.40
2023-02-11T16:30:37.763Z,16.27
2023-02-11T16:33:05.487Z,17.55
2023-02-11T16:35:36.042Z,16.85
2023-02-11T16:38:04.362Z,18.08
2023-02-11T16:40:34.068Z,18.92
2023-02-11T16:43:01.315Z,18.88
2023-02-11T16:45:28.542Z,18.13
2023-02-11T16:48:02.159Z,19.20
2023-02-11T16:50:31.967Z,17.63
2023-02-11T16:53:02.337Z,19.35
2023-02-11T16:55:29.995Z,19.67
2023-02-11T16:57:56.945Z,21.08
2023-02-11T17:00:24.273Z,19.25
2023-02-11T17:02:51.735Z,18.98
2023-02-11T17:05:23.025Z,20.50
2023-02-11T17:07:52.805Z,21.73
2023-02-11T17:10:26.977Z,20.30
2023-02-11T17:14:35.047Z,20.75
2023-02-11T17:23:18.856Z,21.30
2023-02-11T17:25:56.656Z,22.75
2023-02-11T17:28:24.635Z,23.58
2023-02-11T17:30:54.629Z,23.02
2023-02-11T17:33:23.724Z,23.30
2023-02-11T17:35:53.942Z,22.13
2023-02-11T17:38:29.327Z,23.38
2023-02-11T17:41:01.829Z,22.50
2023-02-11T17:43:29.225Z,23.27
2023-02-11T17:46:06.786Z,22.58
2023-02-11T17:48:34.529Z,22.63
2023-02-11T17:51:01.464Z,23.02
2023-02-11T17:53:28.723Z,23.55
2023-02-11T17:55:58.805Z,23.67
2023-02-11T17:58:27.386Z,23.98
2023-02-11T18:01:33.808Z,23.83
2023-02-11T18:04:11.594Z,24.58
2023-02-11T18:06:38.621Z,26.73
2023-02-11T18:09:08.235Z,24.35
2023-02-11T18:11:38.733Z,26.70
2023-02-11T18:14:42.678Z,27.45
2023-02-11T18:17:34.951Z,25.35
2023-02-11T18:20:03.668Z,27.90
2023-02-11T18:22:36.460Z,26.38
2023-02-11T18:25:03.458Z,26.55
2023-02-11T18:27:30.421Z,26.60
2023-02-11T18:29:57.434Z,27.92
2023-02-11T18:32:24.455Z,26.10
2023-02-11T18:34:51.411Z,28.23
2023-02-11T18:37:18.428Z,28.05
2023-02-11T18:39:45.354Z,26.85
2023-02-11T18:42:12.274Z,26.58
2023-02-11T18:44:39.231Z,27.55
2023-02-11T18:47:06.233Z,28.27
2023-02-11T18:49:35.602Z,28.25
2023-02-11T18:52:03.609Z,28.35
2023-02-11T18:54:30.592Z,28.48
2023-02-11T18:56:57.540Z,28.58
2023-02-11T18:59:25.660Z,26.85
2023-02-11T19:01:52.725Z,27.05
2023-02-11T19:04:20.173Z,25.90
2023-02-11T19:06:49.788Z,28.75
2023-02-11T19:09:20.550Z,27.75
2023-02-11T19:11:48.790Z,28.27
2023-02-11T19:14:26.064Z,29.40
2023-02-11T19:16:57.048Z,28.92
2023-02-11T19:19:28.240Z,30.17
2023-02-11T19:21:57.254Z,27.00
2023-02-11T19:24:25.809Z,27.13
2023-02-11T19:26:57.307Z,26.88
2023-02-11T19:29:24.990Z,26.00
2023-02-11T19:31:52.092Z,27.20
2023-02-11T19:34:20.679Z,27.30
2023-02-11T19:36:49.678Z,27.63
2023-02-11T19:39:17.117Z,26.65
2023-02-11T19:41:44.366Z,26.02
2023-02-11T19:44:14.442Z,26.23
2023-02-11T19:46:41.565Z,25.65
2023-02-11T19:49:09.955Z,25.67
2023-02-11T19:51:39.210Z,25.77
2023-02-11T19:54:07.552Z,24.80
2023-02-11T19:56:34.848Z,26.80
2023-02-11T19:59:03.499Z,24.42
2023-02-11T20:01:30.556Z,24.20
2023-02-11T20:03:57.706Z,25.50
2023-02-11T20:06:29.301Z,24.83
2023-02-11T20:09:07.032Z,23.73
2023-02-11T20:11:35.555Z,23.90
2023-02-11T20:14:03.925Z,23.38
2023-02-11T20:16:47.643Z,25.75
2023-02-11T20:19:19.906Z,25.27
2023-02-11T20:21:50.384Z,24.00
2023-02-11T20:24:18.778Z,25.58
2023-02-11T20:26:48.132Z,25.58
2023-02-11T20:29:18.969Z,24.85
2023-02-11T20:31:46.163Z,24.17
2023-02-11T20:34:13.287Z,23.63
2023-02-11T20:36:40.901Z,26.02
2023-02-11T20:39:08.551Z,22.25
2023-02-11T20:41:40.015Z,23.33
2023-02-11T20:44:10.526Z,26.05
2023-02-11T20:46:41.466Z,25.17
2023-02-11T20:49:12.617Z,25.10
2023-02-11T20:51:40.513Z,23.98
2023-02-11T20:54:15.561Z,24.35
2023-02-11T20:59:14.535Z,24.40
2023-02-11T21:01:45.925Z,25.35
2023-02-11T21:04:29.889Z,24.80
2023-02-11T21:07:02.260Z,22.98
2023-02-11T21:09:33.978Z,25.13
2023-02-11T21:12:02.434Z,25.00
2023-02-11T21:14:30.384Z,26.35
2023-02-11T21:16:57.897Z,25.67
2023-02-11T21:19:26.859Z,25.45
2023-02-11T21:21:55.332Z,27.15
2023-02-11T21:24:22.520Z,26.50
2023-02-11T21:26:50.244Z,26.67
2023-02-11T21:29:17.864Z,26.20
2023-02-11T21:31:44.888Z,25.73
2023-02-11T21:34:18.130Z,25.25
2023-02-11T21:36:46.028Z,26.10
2023-02-11T21:39:14.213Z,27.67
2023-02-11T21:41:41.242Z,25.35
2023-02-11T21:44:09.347Z,25.58
2023-02-11T21:46:37.479Z,25.70
2023-02-11T21:49:04.712Z,26.00
2023-02-11T21:51:31.645Z,25.05
2023-02-11T21:54:02.239Z,25.52
2023-02-11T21:56:32.512Z,25.75
2023-02-11T21:59:04.016Z,25.10
2023-02-11T22:01:36.103Z,26.38
2023-02-11T22:04:04.175Z,26.48
2023-02-11T22:06:35.436Z,27.67
2023-02-11T22:09:08.451Z,26.95
2023-02-11T22:11:35.868Z,26.85
2023-02-11T22:14:03.062Z,28.58
2023-02-11T22:16:31.701Z,27.00
2023-02-11T22:18:59.481Z,27.85
2023-02-11T22:21:27.326Z,27.35
2023-02-11T22:23:56.140Z,27.77
2023-02-11T22:26:26.724Z,27.27
2023-02-11T22:28:55.149Z,28.20
2023-02-11T22:31:29.793Z,26.30
2023-02-11T22:33:59.705Z,26.08
2023-02-11T22:36:36.708Z,26.08
2023-02-11T22:39:15.654Z,24.75
2023-02-11T22:41:44.804Z,25.58
2023-02-11T22:44:13.093Z,27.52
2023-02-11T22:46:40.822Z,27.33
2023-02-11T22:49:08.294Z,27.15
2023-02-11T22:51:35.255Z,26.00
2023-02-11T22:54:05.386Z,28.23
2023-02-11T22:56:34.788Z,29.02
2023-02-11T22:59:05.771Z,27.33
2023-02-11T23:01:32.937Z,27.35
2023-02-11T23:04:02.667Z,27.15
2023-02-11T23:06:32.957Z,28.77
2023-02-11T23:09:00.146Z,27.45
2023-02-11T23:11:30.476Z,27.17
2023-02-11T23:13:58.297Z,29.60
2023-02-11T23:16:32.666Z,27.20
2023-02-11T23:19:03.903Z,29.13
2023-02-11T23:21:34.194Z,27.98
2023-02-11T23:24:06.875Z,28.08
2023-02-11T23:26:34.944Z,27.60
2023-02-11T23:29:02.589Z,28.75
2023-02-11T23:31:40.633Z,28.63
2023-02-11T23:34:09.987Z,29.52
2023-02-11T23:36:39.208Z,27.13
2023-02-11T23:39:06.505Z,27.77
2023-02-11T23:41:33.555Z,29.77
2023-02-11T23:44:00.619Z,28.73
2023-02-11T23:46:28.576Z,28.00
2023-02-11T23:48:56.052Z,28.15
2023-02-11T23:51:23.687Z,29.60
2023-02-11T23:53:54.771Z,28.98
2023-02-11T23:56:26.387Z,29.27
2023-02-11T23:58:56.878Z,30.75
